createdAt,value
2023-03-02T00:00:13.413Z,36.86
2023-03-02T00:04:13.581Z,36.74
2023-03-02T00:08:13.794Z,36.93
2023-03-02T00:12:14.035Z,36.72
2023-03-02T00:16:14.232Z,36.41
2023-03-02T00:20:14.278Z,36.58
2023-03-02T00:24:14.340Z,36.50
2023-03-02T00:28:14.487Z,36.40
2023-03-02T00:32:14.590Z,36.06
2023-03-02T00:36:14.591Z,36.13
2023-03-02T00:40:14.584Z,36.06
2023-03-02T00:44:14.631Z,36.08
2023-03-02T00:48:14.651Z,35.98
2023-03-02T00:52:14.700Z,35.83
2023-03-02T00:56:14.734Z,35.78
2023-03-02T01:00:14.751Z,35.68
2023-03-02T01:04:14.819Z,35.48
2023-03-02T01:08:14.835Z,35.56
2023-03-02T01:12:14.837Z,35.65
2023-03-02T01:16:14.904Z,35.59
2023-03-02T01:20:14.810Z,35.30
2023-03-02T01:24:14.819Z,35.56
2023-03-02T01:28:14.809Z,35.27
2023-03-02T01:32:14.784Z,35.41
2023-03-02T01:36:14.791Z,35.23
2023-03-02T01:40:14.798Z,35.00
2023-03-02T01:44:14.849Z,35.26
2023-03-02T01:48:14.831Z,35.15
2023-03-02T01:52:14.832Z,35.03
2023-03-02T01:56:14.885Z,35.22
2023-03-02T02:00:14.923Z,35.01
2023-03-02T02:04:14.993Z,34.95
2023-03-02T02:08:14.971Z,34.70
2023-03-02T02:12:14.977Z,34.49
2023-03-02T02:16:15.091Z,34.92
2023-03-02T02:20:15.055Z,34.59
2023-03-02T02:24:15.146Z,34.37
2023-03-02T02:28:15.185Z,34.34
2023-03-02T02:32:15.404Z,34.34
2023-03-02T02:36:15.286Z,34.41
2023-03-02T02:40:15.365Z,34.23
2023-03-02T02:44:17.155Z,34.46
2023-03-02T02:48:15.441Z,34.23
2023-03-02T02:52:15.511Z,34.27
2023-03-02T02:56:15.546Z,34.16
2023-03-02T03:00:15.684Z,34.30
2023-03-02T03:04:15.792Z,34.10
2023-03-02T03:08:15.829Z,34.04
2023-03-02T03:12:15.849Z,34.02
2023-03-02T03:16:16.143Z,33.87
2023-03-02T03:20:16.053Z,34.03
2023-03-02T03:24:16.163Z,33.93
2023-03-02T03:28:16.233Z,34.01
2023-03-02T03:32:16.413Z,33.89
2023-03-02T03:36:16.439Z,34.04
2023-03-02T03:40:16.500Z,33.83
2023-03-02T03:44:16.585Z,33.69
2023-03-02T03:48:16.720Z,33.80
2023-03-02T03:52:16.807Z,33.69
2023-03-02T03:56:16.900Z,33.78
2023-03-02T04:00:16.997Z,33.73
2023-03-02T04:04:17.134Z,33.60
2023-03-02T04:08:17.229Z,33.61
2023-03-02T04:12:17.342Z,33.46
2023-03-02T04:16:17.433Z,33.44
2023-03-02T04:20:17.551Z,33.54
2023-03-02T04:24:17.656Z,33.52
2023-03-02T04:28:17.857Z,33.29
2023-03-02T04:32:17.950Z,33.47
2023-03-02T04:36:18.060Z,33.45
2023-03-02T04:40:18.185Z,33.33
2023-03-02T04:44:18.325Z,33.35
2023-03-02T04:48:18.455Z,33.18
2023-03-02T04:52:18.569Z,33.10
2023-03-02T04:56:18.703Z,32.99
2023-03-02T05:00:18.874Z,33.27
2023-03-02T05:04:19.055Z,33.02
2023-03-02T05:08:19.157Z,33.09
2023-03-02T05:12:19.318Z,33.02
2023-03-02T05:16:19.677Z,33.05
2023-03-02T05:20:19.639Z,33.05
2023-03-02T05:24:19.772Z,32.96
2023-03-02T05:28:19.889Z,32.81
2023-03-02T05:32:20.041Z,32.92
2023-03-02T05:36:22.867Z,32.89
2023-03-02T05:40:20.152Z,32.87
2023-03-02T05:44:20.100Z,32.65
2023-03-02T05:48:20.053Z,32.74
2023-03-02T05:52:20.012Z,32.89
2023-03-02T05:56:19.998Z,34.27
2023-03-02T06:00:19.950Z,34.09
2023-03-02T06:04:19.915Z,34.56
2023-03-02T06:08:19.868Z,35.09
2023-03-02T06:12:19.867Z,35.55
2023-03-02T06:16:19.910Z,35.99
2023-03-02T06:20:19.783Z,36.47
2023-03-02T06:24:19.741Z,37.02
2023-03-02T06:28:19.697Z,37.68
2023-03-02T06:32:19.742Z,37.60
2023-03-02T06:36:19.783Z,38.71
2023-03-02T06:40:19.830Z,41.42
2023-03-02T06:44:20.244Z,41.24
2023-03-02T06:48:20.231Z,42.82
2023-03-02T06:52:20.225Z,43.58
2023-03-02T06:56:20.096Z,44.08
2023-03-02T07:00:20.239Z,44.42
2023-03-02T07:04:20.168Z,44.50
2023-03-02T07:08:20.245Z,44.87
2023-03-02T07:12:20.320Z,45.70
2023-03-02T07:16:20.260Z,45.77
2023-03-02T07:20:20.225Z,45.78
2023-03-02T07:24:20.200Z,46.03
2023-03-02T07:28:20.216Z,46.45
2023-03-02T07:32:20.170Z,46.64
2023-03-02T07:36:20.081Z,46.65
2023-03-02T07:40:20.254Z,46.91
2023-03-02T07:44:20.000Z,47.04
2023-03-02T07:48:19.968Z,47.12
2023-03-02T07:52:20.281Z,46.98
2023-03-02T07:56:19.924Z,46.91
2023-03-02T08:00:20.256Z,47.52
2023-03-02T08:04:19.888Z,48.43
2023-03-02T08:08:20.291Z,48.94
2023-03-02T08:12:19.744Z,49.46
2023-03-02T08:16:19.726Z,49.93
2023-03-02T08:20:19.821Z,50.36
2023-03-02T08:24:20.011Z,50.53
2023-03-02T08:28:20.228Z,50.83
2023-03-02T08:32:20.193Z,51.18
2023-03-02T08:36:20.157Z,51.55
2023-03-02T08:40:20.268Z,51.56
2023-03-02T08:44:20.293Z,51.22
2023-03-02T08:48:20.284Z,50.54
2023-03-02T08:52:20.091Z,47.62
2023-03-02T08:56:20.003Z,47.06
2023-03-02T09:00:20.263Z,46.83
2023-03-02T09:04:19.955Z,46.57
2023-03-02T09:08:19.970Z,46.27
2023-03-02T09:12:20.022Z,45.79
2023-03-02T09:16:20.053Z,45.65
2023-03-02T09:20:20.275Z,46.16
2023-03-02T09:24:19.908Z,45.55
2023-03-02T09:28:20.278Z,45.70
2023-03-02T09:32:19.946Z,45.70
2023-03-02T09:36:20.318Z,45.57
2023-03-02T09:40:19.753Z,44.41
2023-03-02T09:44:19.804Z,41.89
2023-03-02T09:48:19.813Z,41.02
2023-03-02T09:52:19.806Z,38.43
2023-03-02T09:56:19.795Z,40.84
2023-03-02T10:00:20.532Z,41.67
2023-03-02T10:04:19.964Z,42.14
2023-03-02T10:08:19.618Z,42.46
2023-03-02T10:12:19.689Z,42.04
2023-03-02T10:16:19.609Z,42.20
2023-03-02T10:20:19.525Z,42.41
2023-03-02T10:24:19.486Z,42.64
2023-03-02T10:28:19.794Z,42.65
2023-03-02T10:32:19.489Z,42.73
2023-03-02T10:36:20.805Z,43.56
2023-03-02T10:40:19.822Z,43.82
2023-03-02T10:44:19.318Z,42.39
2023-03-02T10:48:19.318Z,39.25
2023-03-02T10:52:19.203Z,38.77
2023-03-02T10:56:19.163Z,40.06
2023-03-02T11:00:19.274Z,40.97
2023-03-02T11:04:19.881Z,41.60
2023-03-02T11:08:19.664Z,41.95
2023-03-02T11:12:19.775Z,42.23
2023-03-02T11:16:20.049Z,42.39
2023-03-02T11:20:20.359Z,42.30
2023-03-02T11:24:20.113Z,42.64
2023-03-02T11:28:20.245Z,42.38
2023-03-02T11:32:20.439Z,42.28
2023-03-02T11:36:20.817Z,42.30
2023-03-02T11:40:20.847Z,39.19
2023-03-02T11:44:20.665Z,41.13
2023-03-02T11:48:20.774Z,41.14
2023-03-02T11:52:21.358Z,41.59
2023-03-02T11:56:20.999Z,40.95
2023-03-02T12:00:21.028Z,41.30
2023-03-02T12:04:21.347Z,41.83
2023-03-02T12:08:21.134Z,42.18
2023-03-02T12:12:21.141Z,42.39
2023-03-02T12:16:21.214Z,41.73
2023-03-02T12:20:21.189Z,42.13
2023-03-02T12:24:21.357Z,42.31
2023-03-02T12:28:21.409Z,42.49
2023-03-02T12:32:21.410Z,42.99
2023-03-02T12:36:21.387Z,42.75
2023-03-02T12:40:21.421Z,42.33
2023-03-02T12:44:21.845Z,42.81
2023-03-02T12:48:21.730Z,42.01
2023-03-02T12:52:23.826Z,41.55
2023-03-02T12:56:21.753Z,41.14
2023-03-02T13:00:21.962Z,41.08
2023-03-02T13:04:22.393Z,41.11
2023-03-02T13:08:22.213Z,40.90
2023-03-02T13:12:22.351Z,40.82
2023-03-02T13:16:22.559Z,40.62
2023-03-02T13:20:22.872Z,40.56
2023-03-02T13:24:22.866Z,40.51
2023-03-02T13:28:23.372Z,40.81
2023-03-02T13:32:23.482Z,40.79
2023-03-02T13:36:23.425Z,40.21
2023-03-02T13:40:23.709Z,41.49
2023-03-02T13:44:23.823Z,42.18
2023-03-02T13:48:24.416Z,42.18
2023-03-02T13:52:24.136Z,41.79
2023-03-02T13:56:24.340Z,41.05
2023-03-02T14:00:24.312Z,40.86
2023-03-02T14:04:24.452Z,40.97
2023-03-02T14:08:24.238Z,40.94
2023-03-02T14:12:24.186Z,41.07
2023-03-02T14:16:24.159Z,40.89
2023-03-02T14:20:24.388Z,41.10
2023-03-02T14:24:24.068Z,41.19
2023-03-02T14:28:24.052Z,41.39
2023-03-02T14:32:24.023Z,41.27
2023-03-02T14:36:23.952Z,42.53
2023-03-02T14:40:23.937Z,40.08
2023-03-02T14:44:23.895Z,41.08
2023-03-02T14:48:23.840Z,40.41
2023-03-02T14:52:23.795Z,40.28
2023-03-02T14:56:23.867Z,40.97
2023-03-02T15:00:23.760Z,39.76
2023-03-02T15:04:23.856Z,39.48
2023-03-02T15:08:24.422Z,39.10
2023-03-02T15:12:24.418Z,37.49
2023-03-02T15:16:24.586Z,37.63
2023-03-02T15:20:24.150Z,37.96
2023-03-02T15:24:24.408Z,38.48
2023-03-02T15:28:24.328Z,37.90
2023-03-02T15:32:24.478Z,38.08
2023-03-02T15:36:24.463Z,38.12
2023-03-02T15:40:24.561Z,38.41
2023-03-02T15:44:24.682Z,38.04
2023-03-02T15:48:24.768Z,37.76
2023-03-02T15:52:24.844Z,37.31
2023-03-02T15:56:28.345Z,37.49
2023-03-02T16:00:25.921Z,36.93
2023-03-02T16:04:24.864Z,36.57
2023-03-02T16:08:24.827Z,36.24
2023-03-02T16:12:24.815Z,36.03
2023-03-02T16:16:24.986Z,36.59
2023-03-02T16:20:25.050Z,36.43
2023-03-02T16:24:25.171Z,37.10
2023-03-02T16:28:25.293Z,36.39
2023-03-02T16:32:25.515Z,35.53
2023-03-02T16:36:25.933Z,35.64
2023-03-02T16:40:25.788Z,35.98
2023-03-02T16:44:25.970Z,35.22
2023-03-02T16:48:26.163Z,35.28
2023-03-02T16:52:26.393Z,35.45
2023-03-02T16:56:26.379Z,35.90
2023-03-02T17:00:26.353Z,35.55
2023-03-02T17:04:26.304Z,34.98
2023-03-02T17:08:26.202Z,34.54
2023-03-02T17:12:26.196Z,34.25
2023-03-02T17:16:26.146Z,33.33
2023-03-02T17:20:26.142Z,33.22
2023-03-02T17:24:26.053Z,33.90
2023-03-02T17:28:26.057Z,33.67
2023-03-02T17:32:26.553Z,32.64
2023-03-02T17:36:25.960Z,32.78
2023-03-02T17:40:25.922Z,32.34
2023-03-02T17:44:25.893Z,32.26
2023-03-02T17:48:25.861Z,31.11
2023-03-02T17:52:25.833Z,31.41
2023-03-02T17:56:25.771Z,31.39
2023-03-02T18:00:25.747Z,31.04
2023-03-02T18:04:25.829Z,29.95
2023-03-02T18:08:26.465Z,29.06
2023-03-02T18:12:26.075Z,28.46
2023-03-02T18:16:26.189Z,27.66
2023-03-02T18:20:26.188Z,27.31
2023-03-02T18:24:26.314Z,26.84
2023-03-02T18:28:26.435Z,26.67
2023-03-02T18:32:26.596Z,26.54
2023-03-02T18:36:26.727Z,26.27
2023-03-02T18:40:26.938Z,26.12
2023-03-02T18:44:26.917Z,26.29
2023-03-02T18:48:26.836Z,26.26
2023-03-02T18:52:26.801Z,26.10
2023-03-02T18:56:26.753Z,26.03
2023-03-02T19:00:28.027Z,26.02
2023-03-02T19:04:26.777Z,25.94
2023-03-02T19:08:26.654Z,25.98
2023-03-02T19:12:26.634Z,25.95
2023-03-02T19:16:26.649Z,26.02
2023-03-02T19:20:26.540Z,26.09
2023-03-02T19:24:26.541Z,26.12
2023-03-02T19:28:26.461Z,26.14
2023-03-02T19:32:26.481Z,26.12
2023-03-02T19:36:26.386Z,26.17
2023-03-02T19:40:28.312Z,26.26
2023-03-02T19:44:26.310Z,26.19
2023-03-02T19:48:26.318Z,26.24
2023-03-02T19:52:26.325Z,26.33
2023-03-02T19:56:26.224Z,26.40
2023-03-02T20:00:26.203Z,26.41
2023-03-02T20:04:26.193Z,26.28
2023-03-02T20:08:26.124Z,26.25
2023-03-02T20:12:26.098Z,26.26
2023-03-02T20:16:26.063Z,26.33
2023-03-02T20:20:26.016Z,26.22
2023-03-02T20:24:25.972Z,26.26
2023-03-02T20:28:25.933Z,26.25
2023-03-02T20:32:25.995Z,26.23
2023-03-02T20:36:25.919Z,26.32
2023-03-02T20:40:25.865Z,26.31
2023-03-02T20:44:25.971Z,26.44
2023-03-02T20:48:26.075Z,26.51
2023-03-02T20:52:26.155Z,26.51
2023-03-02T20:56:26.298Z,26.50
2023-03-02T21:00:26.376Z,26.52
2023-03-02T21:04:26.550Z,26.54
2023-03-02T21:08:26.704Z,26.59
2023-03-02T21:12:26.880Z,26.53
2023-03-02T21:16:27.043Z,26.53
2023-03-02T21:20:27.180Z,26.57
2023-03-02T21:24:27.413Z,26.54
2023-03-02T21:28:27.589Z,26.60
2023-03-02T21:32:27.848Z,26.80
2023-03-02T21:36:27.758Z,26.97
2023-03-02T21:40:27.737Z,27.03
2023-03-02T21:44:27.686Z,27.17
2023-03-02T21:48:27.639Z,27.18
2023-03-02T21:52:27.596Z,27.33
2023-03-02T21:56:27.622Z,27.52
2023-03-02T22:00:27.526Z,27.59
2023-03-02T22:04:27.495Z,27.72
2023-03-02T22:08:27.483Z,27.71
2023-03-02T22:12:27.425Z,27.70
2023-03-02T22:16:27.430Z,27.41
2023-03-02T22:20:27.358Z,27.30
2023-03-02T22:24:27.348Z,27.37
2023-03-02T22:28:27.270Z,27.47
2023-03-02T22:32:27.333Z,27.60
2023-03-02T22:36:27.223Z,27.71
2023-03-02T22:40:27.178Z,27.80
2023-03-02T22:44:27.095Z,27.99
2023-03-02T22:48:27.145Z,28.07
2023-03-02T22:52:27.229Z,28.17
2023-03-02T22:56:27.327Z,28.21
2023-03-02T23:00:27.414Z,27.91
2023-03-02T23:04:27.551Z,27.55
2023-03-02T23:08:27.582Z,27.37
2023-03-02T23:12:27.747Z,27.36
2023-03-02T23:16:27.965Z,27.51
2023-03-02T23:20:28.064Z,27.72
2023-03-02T23:24:28.232Z,27.90
2023-03-02T23:28:28.432Z,27.93
2023-03-02T23:32:28.502Z,27.84
2023-03-02T23:36:28.383Z,27.49
2023-03-02T23:40:28.329Z,27.17
2023-03-02T23:44:28.289Z,26.95
2023-03-02T23:48:28.264Z,26.86
2023-03-02T23:52:28.218Z,26.69
2023-03-02T23:56:28.178Z,26.50
